Time;durP1;ratioP1;P1;durP2;ratioP2;P2;SDS_P1;SDS_P2;PMS_P1;PMS_P2;Temp;Humidity;BMP_temperature;BMP_pressure;BME280_temperature;BME280_humidity;BME280_pressure;Samples;Min_cycle;Max_cycle;Signal;HPM_P1;HPM_P2
2023/02/19 00:01:28;;;;;;;7.28;6.57;;;;;;;;;;5016350;28;20049;-79
2023/02/19 00:04:02;;;;;;;8.50;6.97;;;;;;;;;;5031711;28;20156;-78
2023/02/19 00:06:31;;;;;;;9.70;7.35;;;;;;;;;;5001022;28;20216;-79
2023/02/19 00:08:58;;;;;;;9.20;7.30;;;;;;;;;;5016505;28;20113;-79
2023/02/19 00:11:27;;;;;;;7.30;6.30;;;;;;;;;;5031957;28;20140;-79
2023/02/19 00:13:56;;;;;;;7.90;6.18;;;;;;;;;;5033221;28;20144;-79
2023/02/19 00:16:49;;;;;;;8.27;6.15;;;;;;;;;;5015489;28;20580;-78
2023/02/19 00:19:18;;;;;;;10.30;6.82;;;;;;;;;;5029917;28;20049;-79
2023/02/19 00:21:45;;;;;;;10.30;7.55;;;;;;;;;;5031869;28;20174;-79
2023/02/19 00:24:12;;;;;;;11.07;6.93;;;;;;;;;;5015824;28;20049;-79
2023/02/19 00:26:40;;;;;;;10.85;7.50;;;;;;;;;;5031653;28;20045;-78
2023/02/19 00:29:08;;;;;;;10.38;7.47;;;;;;;;;;5033295;28;20144;-79
2023/02/19 00:31:35;;;;;;;10.32;7.28;;;;;;;;;;5016973;28;20120;-79
2023/02/19 00:34:04;;;;;;;8.13;6.18;;;;;;;;;;5032558;28;20057;-79
2023/02/19 00:36:32;;;;;;;8.88;6.20;;;;;;;;;;5017721;28;20049;-78
2023/02/19 00:38:59;;;;;;;7.03;5.65;;;;;;;;;;5017418;28;20413;-78
2023/02/19 00:41:26;;;;;;;7.57;6.50;;;;;;;;;;5034218;28;20471;-77
2023/02/19 00:43:55;;;;;;;8.07;6.38;;;;;;;;;;5032350;28;20053;-78
2023/02/19 00:46:25;;;;;;;8.73;6.93;;;;;;;;;;5015343;28;20051;-78
2023/02/19 00:48:52;;;;;;;9.48;5.93;;;;;;;;;;5032711;28;20053;-78
2023/02/19 00:51:20;;;;;;;7.15;5.53;;;;;;;;;;5015024;28;20132;-77
2023/02/19 00:53:47;;;;;;;6.13;5.45;;;;;;;;;;5015333;28;20054;-77
2023/02/19 00:56:14;;;;;;;6.82;5.50;;;;;;;;;;5016014;28;20045;-78
2023/02/19 00:58:41;;;;;;;7.32;5.65;;;;;;;;;;5031599;28;20064;-76
2023/02/19 01:01:09;;;;;;;7.65;5.70;;;;;;;;;;5033180;28;20091;-77
2023/02/19 01:03:37;;;;;;;6.57;5.82;;;;;;;;;;5015694;28;20119;-77
2023/02/19 01:06:05;;;;;;;7.53;5.93;;;;;;;;;;5020111;28;20525;-79
2023/02/19 01:08:32;;;;;;;7.38;6.28;;;;;;;;;;5042252;28;20060;-79
2023/02/19 01:10:59;;;;;;;9.10;6.93;;;;;;;;;;5033834;28;20128;-79
2023/02/19 01:13:27;;;;;;;8.20;6.53;;;;;;;;;;5026672;28;20081;-79
2023/02/19 01:16:09;;;;;;;7.55;6.53;;;;;;;;;;5024111;28;20076;-79
2023/02/19 01:18:36;;;;;;;9.23;6.60;;;;;;;;;;5036671;28;20144;-79
2023/02/19 01:21:17;;;;;;;7.65;6.20;;;;;;;;;;5019966;28;20394;-80
2023/02/19 01:23:43;;;;;;;6.78;6.05;;;;;;;;;;5038458;28;20451;-79
2023/02/19 01:26:13;;;;;;;6.60;5.90;;;;;;;;;;5019299;28;20073;-79
2023/02/19 01:28:39;;;;;;;6.22;5.63;;;;;;;;;;5018354;28;20335;-79
2023/02/19 01:31:10;;;;;;;6.80;5.70;;;;;;;;;;4987527;28;20456;-79
2023/02/19 01:33:37;;;;;;;7.45;6.65;;;;;;;;;;5002987;28;20132;-79
2023/02/19 01:36:05;;;;;;;6.80;6.10;;;;;;;;;;5017132;28;20120;-79
2023/02/19 01:38:32;;;;;;;6.40;5.80;;;;;;;;;;5032709;28;20080;-79
2023/02/19 01:41:01;;;;;;;7.28;6.03;;;;;;;;;;5018466;28;20485;-77
2023/02/19 01:43:28;;;;;;;9.65;5.65;;;;;;;;;;5020132;28;20084;-77
2023/02/19 01:45:55;;;;;;;10.07;7.20;;;;;;;;;;5035639;28;20057;-76
2023/02/19 01:48:33;;;;;;;7.50;6.68;;;;;;;;;;5036148;28;20133;-76
2023/02/19 01:51:06;;;;;;;7.07;6.38;;;;;;;;;;5021805;28;20080;-76
2023/02/19 01:53:37;;;;;;;8.10;6.53;;;;;;;;;;5020664;28;20050;-75
2023/02/19 01:56:04;;;;;;;6.65;6.05;;;;;;;;;;5017446;28;20132;-76
2023/02/19 01:58:32;;;;;;;9.27;7.15;;;;;;;;;;5019628;28;20095;-76
2023/02/19 02:01:00;;;;;;;7.63;6.82;;;;;;;;;;5035339;28;20085;-77
2023/02/19 02:03:27;;;;;;;8.63;6.82;;;;;;;;;;5002566;28;20054;-75
2023/02/19 02:06:22;;;;;;;7.25;6.00;;;;;;;;;;5035253;28;20095;-76
2023/02/19 02:11:48;;;;;;;6.75;6.05;;;;;;;;;;5034684;28;20068;-76
2023/02/19 02:14:16;;;;;;;7.63;5.97;;;;;;;;;;5017115;28;20068;-76
2023/02/19 02:16:57;;;;;;;7.35;6.60;;;;;;;;;;5032223;28;20041;-76
2023/02/19 02:19:43;;;;;;;6.85;6.10;;;;;;;;;;5001224;28;20132;-76
2023/02/19 02:22:38;;;;;;;6.72;5.47;;;;;;;;;;5017019;28;20053;-76
2023/02/19 02:25:24;;;;;;;6.22;5.10;;;;;;;;;;5011078;28;20049;-77
2023/02/19 02:28:25;;;;;;;7.63;5.40;;;;;;;;;;5033139;28;20565;-77
2023/02/19 02:30:57;;;;;;;6.40;4.63;;;;;;;;;;5035470;28;20424;-78
2023/02/19 02:33:30;;;;;;;7.22;4.80;;;;;;;;;;5018327;28;20111;-78
2023/02/19 02:36:06;;;;;;;5.05;4.07;;;;;;;;;;5034059;28;20041;-79
2023/02/19 02:38:35;;;;;;;4.75;4.00;;;;;;;;;;5033742;28;20128;-79
2023/02/19 02:41:02;;;;;;;3.88;3.50;;;;;;;;;;5033642;28;20055;-79
2023/02/19 02:43:29;;;;;;;4.25;3.80;;;;;;;;;;5018311;28;20056;-77
2023/02/19 02:45:56;;;;;;;4.68;3.95;;;;;;;;;;5033158;28;20421;-77
2023/02/19 02:48:30;;;;;;;3.60;3.28;;;;;;;;;;5033461;28;20136;-77
2023/02/19 02:51:12;;;;;;;4.30;3.90;;;;;;;;;;5015926;28;20077;-77
2023/02/19 02:56:39;;;;;;;3.70;3.30;;;;;;;;;;5032093;28;20060;-77
2023/02/19 02:59:07;;;;;;;5.28;3.63;;;;;;;;;;5015805;28;20069;-78
2023/02/19 03:04:28;;;;;;;4.45;3.55;;;;;;;;;;5032686;28;20119;-79
2023/02/19 03:06:56;;;;;;;4.22;3.47;;;;;;;;;;5032241;28;20136;-77
2023/02/19 03:09:39;;;;;;;6.05;4.13;;;;;;;;;;5030822;28;20141;-77
2023/02/19 03:20:33;;;;;;;5.13;4.18;;;;;;;;;;5031241;28;20056;-77
2023/02/19 03:23:00;;;;;;;4.30;3.90;;;;;;;;;;5032972;28;20053;-76
2023/02/19 03:26:12;;;;;;;4.18;3.40;;;;;;;;;;5000021;28;20063;-77
2023/02/19 03:29:21;;;;;;;5.60;3.72;;;;;;;;;;5019511;28;20053;-77
2023/02/19 03:31:08;;;;;;;3.92;3.63;;;;;;;;;;5031486;28;20057;-77
2023/02/19 03:33:35;;;;;;;5.32;3.63;;;;;;;;;;4998369;28;20065;-77
2023/02/19 03:36:04;;;;;;;4.78;3.92;;;;;;;;;;5014655;28;20054;-76
2023/02/19 03:38:36;;;;;;;4.40;4.00;;;;;;;;;;5015169;28;20145;-77
2023/02/19 03:41:15;;;;;;;4.15;3.75;;;;;;;;;;5015479;28;20064;-76
2023/02/19 03:43:50;;;;;;;6.25;3.75;;;;;;;;;;5031145;28;20057;-77
2023/02/19 03:46:22;;;;;;;3.92;3.35;;;;;;;;;;5033006;28;20045;-77
2023/02/19 03:48:56;;;;;;;3.50;3.20;;;;;;;;;;5014819;28;20112;-76
2023/02/19 03:51:26;;;;;;;4.57;3.70;;;;;;;;;;5012029;28;20065;-77
2023/02/19 03:54:15;;;;;;;3.15;2.85;;;;;;;;;;5011388;28;20053;-78
2023/02/19 03:57:24;;;;;;;7.32;3.45;;;;;;;;;;5019953;28;20045;-77
2023/02/19 03:59:56;;;;;;;3.92;3.00;;;;;;;;;;4999640;28;20060;-78
2023/02/19 04:02:32;;;;;;;3.15;2.88;;;;;;;;;;5022842;28;20040;-79
2023/02/19 04:05:21;;;;;;;5.43;2.85;;;;;;;;;;5018146;28;20121;-78
2023/02/19 04:07:49;;;;;;;4.10;2.85;;;;;;;;;;5013607;28;20054;-78
2023/02/19 04:10:16;;;;;;;3.15;2.70;;;;;;;;;;5011989;28;20520;-78
2023/02/19 04:12:47;;;;;;;4.35;2.92;;;;;;;;;;5011746;28;20413;-78
2023/02/19 04:15:19;;;;;;;2.85;2.63;;;;;;;;;;5023308;28;20068;-78
2023/02/19 04:17:52;;;;;;;3.30;2.95;;;;;;;;;;5011017;28;20559;-78
2023/02/19 04:20:19;;;;;;;;;;;;;;;;;;4996329;28;20417;-78
2023/02/19 04:22:45;;;;;;;2.75;2.20;;;;;;;;;;5019092;28;19925;-78
2023/02/19 04:25:12;;;;;;;3.35;2.53;;;;;;;;;;5031628;28;20053;-78
2023/02/19 04:27:39;;;;;;;2.53;2.33;;;;;;;;;;5035053;28;20056;-78
2023/02/19 04:30:07;;;;;;;2.40;2.20;;;;;;;;;;5037420;28;20405;-79
2023/02/19 04:32:34;;;;;;;2.67;2.30;;;;;;;;;;5001670;28;20045;-78
2023/02/19 04:35:01;;;;;;;2.47;2.10;;;;;;;;;;5032549;28;20112;-78
2023/02/19 04:37:27;;;;;;;2.55;2.28;;;;;;;;;;5033253;28;20096;-78
2023/02/19 04:39:54;;;;;;;4.20;3.00;;;;;;;;;;5029724;28;20137;-78
2023/02/19 04:42:21;;;;;;;3.28;2.40;;;;;;;;;;5029912;28;20053;-79
2023/02/19 04:44:48;;;;;;;5.28;2.50;;;;;;;;;;5015188;28;20064;-78
2023/02/19 04:47:17;;;;;;;3.42;2.03;;;;;;;;;;5016488;28;20059;-78
2023/02/19 04:49:44;;;;;;;2.45;2.25;;;;;;;;;;5033185;28;20045;-78
2023/02/19 04:52:11;;;;;;;3.10;2.05;;;;;;;;;;5031359;28;20049;-78
2023/02/19 04:54:38;;;;;;;1.58;1.48;;;;;;;;;;5000877;28;20049;-79
2023/02/19 04:57:05;;;;;;;2.45;1.60;;;;;;;;;;5032409;28;20057;-79
2023/02/19 04:59:32;;;;;;;1.98;1.40;;;;;;;;;;5032159;28;20060;-78
2023/02/19 05:01:59;;;;;;;1.67;1.23;;;;;;;;;;5015682;28;20053;-79
2023/02/19 05:04:25;;;;;;;0.68;0.68;;;;;;;;;;5015830;28;20057;-79
2023/02/19 05:06:52;;;;;;;1.73;0.70;;;;;;;;;;5031723;28;20061;-78
2023/02/19 05:09:19;;;;;;;1.85;0.50;;;;;;;;;;5015724;28;20376;-78
2023/02/19 05:11:46;;;;;;;0.80;0.50;;;;;;;;;;5032908;28;20053;-78
2023/02/19 05:14:13;;;;;;;0.70;0.45;;;;;;;;;;5032312;28;20140;-79
2023/02/19 05:16:39;;;;;;;0.30;0.30;;;;;;;;;;5031476;28;20046;-78
2023/02/19 05:19:06;;;;;;;0.28;0.28;;;;;;;;;;5015665;28;20049;-79
2023/02/19 05:21:33;;;;;;;0.40;0.32;;;;;;;;;;5033389;28;20053;-77
2023/02/19 05:24:00;;;;;;;0.28;0.28;;;;;;;;;;5032429;28;20053;-78
2023/02/19 05:26:27;;;;;;;0.40;0.40;;;;;;;;;;5014891;28;20140;-78
2023/02/19 05:28:54;;;;;;;2.50;1.70;;;;;;;;;;5014621;28;20049;-79
2023/02/19 05:31:21;;;;;;;0.30;0.30;;;;;;;;;;5025748;28;20565;-78
2023/02/19 05:33:50;;;;;;;0.52;0.52;;;;;;;;;;5011480;28;20081;-78
2023/02/19 05:36:18;;;;;;;0.30;0.30;;;;;;;;;;4996184;28;20058;-78
2023/02/19 05:38:46;;;;;;;0.17;0.17;;;;;;;;;;5031075;28;20054;-79
2023/02/19 05:41:15;;;;;;;1.08;0.30;;;;;;;;;;5032097;28;20054;-78
2023/02/19 05:43:43;;;;;;;0.35;0.20;;;;;;;;;;4998338;28;20049;-78
2023/02/19 05:46:12;;;;;;;0.30;0.30;;;;;;;;;;5031109;28;20054;-78
2023/02/19 05:48:39;;;;;;;0.68;0.40;;;;;;;;;;5015470;28;20045;-81
2023/02/19 05:51:09;;;;;;;0.30;0.30;;;;;;;;;;5017828;28;20061;-82
2023/02/19 05:53:37;;;;;;;0.30;0.25;;;;;;;;;;5020434;28;20093;-79
2023/02/19 05:56:04;;;;;;;0.20;0.20;;;;;;;;;;5017718;28;20049;-79
2023/02/19 05:58:31;;;;;;;0.30;0.30;;;;;;;;;;5033364;28;20128;-78
2023/02/19 06:00:57;;;;;;;0.30;0.30;;;;;;;;;;5018151;28;20050;-78
2023/02/19 06:03:24;;;;;;;1.17;0.20;;;;;;;;;;5035097;28;20057;-78
2023/02/19 06:05:51;;;;;;;0.30;0.30;;;;;;;;;;5021512;28;20083;-78
2023/02/19 06:08:18;;;;;;;0.20;0.20;;;;;;;;;;5013796;28;20054;-79
2023/02/19 06:10:45;;;;;;;0.20;0.20;;;;;;;;;;4997751;28;20050;-79
2023/02/19 06:13:12;;;;;;;0.13;0.13;;;;;;;;;;4997610;28;20057;-78
2023/02/19 06:15:38;;;;;;;0.20;0.10;;;;;;;;;;5015098;28;20054;-78
2023/02/19 06:18:05;;;;;;;0.98;0.30;;;;;;;;;;5000170;28;20054;-79
2023/02/19 06:20:32;;;;;;;0.52;0.30;;;;;;;;;;5033542;28;20053;-77
2023/02/19 06:22:59;;;;;;;0.20;0.20;;;;;;;;;;5033336;28;20088;-77
2023/02/19 06:25:25;;;;;;;0.30;0.30;;;;;;;;;;5030633;28;20132;-78
2023/02/19 06:27:52;;;;;;;0.32;0.32;;;;;;;;;;5023342;28;20053;-79
2023/02/19 06:30:19;;;;;;;0.20;0.20;;;;;;;;;;5031529;28;20061;-77
2023/02/19 06:32:46;;;;;;;0.32;0.32;;;;;;;;;;5020357;28;20062;-78
2023/02/19 06:35:13;;;;;;;0.10;0.10;;;;;;;;;;5011166;28;20064;-78
2023/02/19 06:37:39;;;;;;;0.20;0.20;;;;;;;;;;5031590;28;20140;-78
2023/02/19 06:40:07;;;;;;;0.30;0.30;;;;;;;;;;5013866;28;20058;-78
2023/02/19 06:42:34;;;;;;;1.42;0.30;;;;;;;;;;5016615;28;20053;-78
2023/02/19 06:45:01;;;;;;;0.20;0.20;;;;;;;;;;5015677;28;20060;-77
2023/02/19 06:47:31;;;;;;;0.20;0.20;;;;;;;;;;5016115;28;20053;-77
2023/02/19 06:49:59;;;;;;;0.25;0.25;;;;;;;;;;5027380;28;20050;-78
2023/02/19 06:52:26;;;;;;;0.28;0.25;;;;;;;;;;5015135;28;20053;-77
2023/02/19 06:54:53;;;;;;;0.30;0.30;;;;;;;;;;5049737;28;20109;-78
2023/02/19 06:57:20;;;;;;;0.32;0.32;;;;;;;;;;5022042;28;20041;-79
2023/02/19 06:59:47;;;;;;;0.22;0.20;;;;;;;;;;5040654;28;20050;-78
2023/02/19 07:02:13;;;;;;;0.40;0.30;;;;;;;;;;5018871;28;20063;-78
2023/02/19 07:04:40;;;;;;;0.95;0.50;;;;;;;;;;5040694;28;20067;-78
2023/02/19 07:07:10;;;;;;;1.58;0.47;;;;;;;;;;5021658;28;20059;-79
2023/02/19 07:09:37;;;;;;;0.70;0.60;;;;;;;;;;5035996;28;20050;-79
2023/02/19 07:12:04;;;;;;;0.80;0.80;;;;;;;;;;5034913;28;20068;-78
2023/02/19 07:14:31;;;;;;;0.50;0.50;;;;;;;;;;5035978;28;20096;-80
2023/02/19 07:16:58;;;;;;;1.85;0.75;;;;;;;;;;5034437;28;20132;-79
2023/02/19 07:19:24;;;;;;;0.85;0.52;;;;;;;;;;5035727;28;20053;-78
2023/02/19 07:21:51;;;;;;;0.85;0.85;;;;;;;;;;5037438;28;20104;-78
2023/02/19 07:24:20;;;;;;;0.85;0.73;;;;;;;;;;5019728;28;20057;-78
2023/02/19 07:26:47;;;;;;;1.65;0.85;;;;;;;;;;5020961;28;20115;-79
2023/02/19 07:29:14;;;;;;;2.25;0.80;;;;;;;;;;5016858;28;20049;-78
2023/02/19 07:31:42;;;;;;;0.93;0.77;;;;;;;;;;5033603;28;20133;-84
2023/02/19 07:34:08;;;;;;;1.40;0.50;;;;;;;;;;5030429;28;20061;-78
2023/02/19 07:36:35;;;;;;;1.42;1.20;;;;;;;;;;5033087;28;20072;-77
2023/02/19 07:39:02;;;;;;;1.27;0.93;;;;;;;;;;5030948;28;20041;-75
2023/02/19 07:41:29;;;;;;;1.23;0.90;;;;;;;;;;5031400;28;20136;-77
2023/02/19 07:43:56;;;;;;;0.75;0.75;;;;;;;;;;5013657;28;20063;-76
2023/02/19 07:46:24;;;;;;;2.05;1.40;;;;;;;;;;5026318;28;20137;-76
2023/02/19 07:48:51;;;;;;;0.80;0.80;;;;;;;;;;5035048;28;20088;-76
2023/02/19 07:51:18;;;;;;;1.10;0.90;;;;;;;;;;5020958;28;20049;-75
2023/02/19 07:53:46;;;;;;;1.45;1.00;;;;;;;;;;5003248;28;20060;-77
2023/02/19 07:56:13;;;;;;;0.95;0.90;;;;;;;;;;5020714;28;20132;-76
2023/02/19 07:58:40;;;;;;;1.00;0.90;;;;;;;;;;5002923;28;20137;-77
2023/02/19 08:01:18;;;;;;;1.98;1.20;;;;;;;;;;5037187;28;20132;-75
2023/02/19 08:03:45;;;;;;;1.30;1.20;;;;;;;;;;5024457;28;20059;-76
2023/02/19 08:06:15;;;;;;;1.63;1.17;;;;;;;;;;5019386;28;20080;-76
2023/02/19 08:08:42;;;;;;;1.42;1.33;;;;;;;;;;5004624;28;20057;-76
2023/02/19 08:13:54;;;;;;;1.40;1.02;;;;;;;;;;5020082;28;20130;-76
2023/02/19 08:16:21;;;;;;;1.10;1.00;;;;;;;;;;5004129;28;20067;-76
2023/02/19 08:19:07;;;;;;;1.52;1.20;;;;;;;;;;5001565;28;20046;-76
2023/02/19 08:21:34;;;;;;;1.80;1.15;;;;;;;;;;5029361;28;20564;-77
2023/02/19 08:24:01;;;;;;;2.55;1.40;;;;;;;;;;5029247;28;20535;-76
2023/02/19 08:26:28;;;;;;;1.92;1.42;;;;;;;;;;5031798;28;20168;-75
2023/02/19 08:28:55;;;;;;;1.45;1.35;;;;;;;;;;5029290;28;20092;-76
2023/02/19 08:31:21;;;;;;;1.88;1.60;;;;;;;;;;5011045;28;20383;-76
2023/02/19 08:33:48;;;;;;;2.85;2.20;;;;;;;;;;5030475;28;20053;-76
2023/02/19 08:36:15;;;;;;;2.15;1.40;;;;;;;;;;5028038;28;20591;-76
2023/02/19 08:38:42;;;;;;;1.88;1.27;;;;;;;;;;4993212;28;20137;-75
2023/02/19 08:41:11;;;;;;;1.38;1.13;;;;;;;;;;5008672;28;20517;-76
2023/02/19 08:43:39;;;;;;;1.20;1.10;;;;;;;;;;4998847;28;20072;-76
2023/02/19 08:46:08;;;;;;;1.90;1.60;;;;;;;;;;5002721;28;20050;-76
2023/02/19 08:48:36;;;;;;;1.20;1.00;;;;;;;;;;4995209;28;20054;-76
2023/02/19 08:51:07;;;;;;;0.85;0.85;;;;;;;;;;5011983;28;20064;-76
2023/02/19 08:53:35;;;;;;;0.80;0.60;;;;;;;;;;5027903;28;20082;-75
2023/02/19 08:56:14;;;;;;;0.60;0.60;;;;;;;;;;5010915;28;20057;-74
2023/02/19 08:58:41;;;;;;;2.72;1.30;;;;;;;;;;5024994;28;20149;-75
2023/02/19 09:01:10;;;;;;;2.78;1.30;;;;;;;;;;5043558;28;20061;-75
2023/02/19 09:03:38;;;;;;;3.92;1.67;;;;;;;;;;5043050;28;20060;-75
2023/02/19 09:06:05;;;;;;;3.40;1.65;;;;;;;;;;5043406;28;20088;-75
2023/02/19 09:08:32;;;;;;;2.78;1.67;;;;;;;;;;5010830;28;20412;-75
2023/02/19 09:11:03;;;;;;;2.20;0.82;;;;;;;;;;5028959;28;20056;-75
2023/02/19 09:13:30;;;;;;;0.88;0.70;;;;;;;;;;5006479;28;20370;-75
2023/02/19 09:15:57;;;;;;;1.60;0.80;;;;;;;;;;5010427;28;20140;-75
2023/02/19 09:18:25;;;;;;;1.88;0.90;;;;;;;;;;5002579;28;20046;-75
2023/02/19 09:20:52;;;;;;;0.77;0.65;;;;;;;;;;5020089;28;20054;-75
2023/02/19 09:23:19;;;;;;;1.63;0.77;;;;;;;;;;5019172;28;20060;-74
2023/02/19 09:25:49;;;;;;;1.48;0.88;;;;;;;;;;5006918;28;20076;-75
2023/02/19 09:28:18;;;;;;;3.92;1.30;;;;;;;;;;4995728;28;20073;-75
2023/02/19 09:30:44;;;;;;;2.13;1.00;;;;;;;;;;5024028;28;20045;-75
2023/02/19 09:33:12;;;;;;;1.23;0.82;;;;;;;;;;5025842;28;20096;-74
2023/02/19 09:35:46;;;;;;;1.65;1.20;;;;;;;;;;4997003;28;20056;-74
2023/02/19 09:38:13;;;;;;;3.90;1.20;;;;;;;;;;5020123;28;20137;-75
2023/02/19 09:40:40;;;;;;;3.65;1.48;;;;;;;;;;4995715;28;20093;-76
2023/02/19 09:43:08;;;;;;;5.28;2.72;;;;;;;;;;4987763;28;20054;-75
2023/02/19 09:45:36;;;;;;;7.07;3.55;;;;;;;;;;4990158;28;20050;-75
2023/02/19 09:48:05;;;;;;;4.57;2.40;;;;;;;;;;4997025;28;20482;-75
2023/02/19 09:50:35;;;;;;;4.97;1.80;;;;;;;;;;5012677;28;20045;-74
2023/02/19 09:53:03;;;;;;;2.25;1.30;;;;;;;;;;5022597;28;20051;-74
2023/02/19 09:55:35;;;;;;;2.60;1.00;;;;;;;;;;4995159;28;20557;-75
2023/02/19 09:58:07;;;;;;;6.25;1.67;;;;;;;;;;4997044;28;20060;-75
2023/02/19 10:00:34;;;;;;;4.00;1.10;;;;;;;;;;5026212;28;20046;-74
2023/02/19 10:03:11;;;;;;;2.85;1.00;;;;;;;;;;4992807;28;20049;-75
2023/02/19 10:05:38;;;;;;;2.05;0.77;;;;;;;;;;4996561;28;20136;-75
2023/02/19 10:08:07;;;;;;;1.88;1.20;;;;;;;;;;5002709;28;20046;-75
2023/02/19 10:10:35;;;;;;;4.60;2.00;;;;;;;;;;5027217;28;20072;-75
2023/02/19 10:13:28;;;;;;;1.65;0.80;;;;;;;;;;5012940;28;20127;-75
2023/02/19 10:15:57;;;;;;;2.10;1.10;;;;;;;;;;5007212;28;20045;-76
2023/02/19 10:18:27;;;;;;;2.15;0.80;;;;;;;;;;5006223;28;20051;-75
2023/02/19 10:20:54;;;;;;;3.60;0.80;;;;;;;;;;5024133;28;20502;-74
2023/02/19 10:23:21;;;;;;;5.22;1.05;;;;;;;;;;5026323;28;20057;-75
2023/02/19 10:25:57;;;;;;;2.33;0.95;;;;;;;;;;5013046;28;20053;-76
2023/02/19 10:28:32;;;;;;;2.53;0.60;;;;;;;;;;5004033;28;20042;-75
2023/02/19 10:31:04;;;;;;;1.63;0.70;;;;;;;;;;5022487;28;20049;-75
2023/02/19 10:33:31;;;;;;;1.33;0.70;;;;;;;;;;4988559;28;20388;-75
2023/02/19 10:35:59;;;;;;;2.38;0.60;;;;;;;;;;5012518;28;20061;-74
2023/02/19 10:38:31;;;;;;;3.53;0.80;;;;;;;;;;5022370;28;20041;-75
2023/02/19 10:41:19;;;;;;;1.17;0.60;;;;;;;;;;5003461;28;20064;-75
2023/02/19 10:44:07;;;;;;;1.35;0.63;;;;;;;;;;5020704;28;20512;-75
2023/02/19 10:46:35;;;;;;;2.22;1.00;;;;;;;;;;5005028;28;20435;-75
2023/02/19 10:49:14;;;;;;;1.85;0.73;;;;;;;;;;5007318;28;20053;-74
2023/02/19 10:51:41;;;;;;;2.63;0.80;;;;;;;;;;5001166;28;20056;-75
2023/02/19 10:54:25;;;;;;;1.52;0.80;;;;;;;;;;5004012;28;20503;-75
2023/02/19 10:56:53;;;;;;;2.15;0.80;;;;;;;;;;5005563;28;20512;-75
2023/02/19 10:59:25;;;;;;;2.53;0.73;;;;;;;;;;5014311;28;20096;-76
2023/02/19 11:02:08;;;;;;;1.23;0.65;;;;;;;;;;5020088;28;20057;-76
2023/02/19 11:04:36;;;;;;;;;;;;;;;;;;5021671;28;20049;-76
2023/02/19 11:07:12;;;;;;;1.75;0.80;;;;;;;;;;5039391;28;20299;-75
2023/02/19 11:09:41;;;;;;;0.68;0.50;;;;;;;;;;5010222;28;20050;-75
2023/02/19 11:12:08;;;;;;;4.22;0.93;;;;;;;;;;5000606;28;20069;-77
2023/02/19 11:14:35;;;;;;;1.85;0.80;;;;;;;;;;4987650;28;20049;-75
2023/02/19 11:17:05;;;;;;;1.45;0.75;;;;;;;;;;5016501;28;20054;-76
2023/02/19 11:19:42;;;;;;;2.78;1.35;;;;;;;;;;5015199;28;20038;-77
2023/02/19 11:22:34;;;;;;;1.50;0.60;;;;;;;;;;5001035;28;20069;-78
2023/02/19 11:25:08;;;;;;;5.65;0.80;;;;;;;;;;5017305;28;20049;-76
2023/02/19 11:27:36;;;;;;;0.43;0.43;;;;;;;;;;5013834;28;20478;-78
2023/02/19 11:30:43;;;;;;;1.42;0.90;;;;;;;;;;4987340;28;20068;-77
2023/02/19 11:33:16;;;;;;;2.05;0.98;;;;;;;;;;5022075;28;20212;-77
2023/02/19 11:35:43;;;;;;;2.15;0.80;;;;;;;;;;5019068;28;20081;-75
2023/02/19 11:38:11;;;;;;;2.80;0.75;;;;;;;;;;4986614;28;20081;-76
2023/02/19 11:40:55;;;;;;;2.40;0.80;;;;;;;;;;5016928;28;20084;-75
2023/02/19 11:43:28;;;;;;;5.28;1.70;;;;;;;;;;5020560;28;20058;-79
2023/02/19 11:46:20;;;;;;;3.28;1.13;;;;;;;;;;5019047;28;20140;-78
2023/02/19 11:48:55;;;;;;;2.60;1.33;;;;;;;;;;5004353;28;20140;-79
2023/02/19 11:51:44;;;;;;;2.40;0.80;;;;;;;;;;5017610;28;20050;-79
2023/02/19 11:54:47;;;;;;;2.42;1.00;;;;;;;;;;5021710;28;20055;-77
2023/02/19 11:57:26;;;;;;;2.45;0.82;;;;;;;;;;5020503;28;20644;-77
2023/02/19 12:00:02;;;;;;;1.85;0.70;;;;;;;;;;5024352;28;20410;-74
2023/02/19 12:02:43;;;;;;;1.58;0.65;;;;;;;;;;5016944;28;20054;-75
2023/02/19 12:05:12;;;;;;;1.75;0.68;;;;;;;;;;5015967;28;20053;-74
2023/02/19 12:08:09;;;;;;;1.88;0.85;;;;;;;;;;5020460;28;20084;-74
2023/02/19 12:10:47;;;;;;;2.50;0.90;;;;;;;;;;5021038;28;20060;-74
2023/02/19 12:13:30;;;;;;;1.90;1.10;;;;;;;;;;5016250;28;20058;-74
2023/02/19 12:16:22;;;;;;;3.08;0.90;;;;;;;;;;5019085;28;20049;-75
2023/02/19 12:19:08;;;;;;;2.60;0.98;;;;;;;;;;5002569;28;20414;-74
2023/02/19 12:21:35;;;;;;;2.03;1.17;;;;;;;;;;5019101;28;20497;-74
2023/02/19 12:24:14;;;;;;;2.63;1.23;;;;;;;;;;5022711;28;20493;-74
2023/02/19 12:26:44;;;;;;;1.10;1.00;;;;;;;;;;5015637;28;20062;-74
2023/02/19 12:29:11;;;;;;;1.67;0.85;;;;;;;;;;5018966;28;20084;-74
2023/02/19 12:31:47;;;;;;;2.15;1.10;;;;;;;;;;5013939;28;20587;-74
2023/02/19 12:34:35;;;;;;;3.75;1.63;;;;;;;;;;5015104;28;20053;-76
2023/02/19 12:37:11;;;;;;;2.42;0.98;;;;;;;;;;4996984;28;20501;-77
2023/02/19 12:40:06;;;;;;;2.70;1.10;;;;;;;;;;5020936;28;20416;-76
2023/02/19 12:42:42;;;;;;;2.53;1.17;;;;;;;;;;5016283;28;20053;-77
2023/02/19 12:45:23;;;;;;;2.83;1.17;;;;;;;;;;5014058;28;20077;-77
2023/02/19 12:48:21;;;;;;;2.75;1.00;;;;;;;;;;5012726;28;20449;-77
2023/02/19 12:50:48;;;;;;;3.22;1.17;;;;;;;;;;4995937;28;20050;-77
2023/02/19 12:53:38;;;;;;;2.63;1.10;;;;;;;;;;5016994;28;20219;-78
2023/02/19 12:56:13;;;;;;;4.07;2.15;;;;;;;;;;5016484;28;20049;-77
2023/02/19 12:58:42;;;;;;;2.85;1.30;;;;;;;;;;4999857;28;20080;-76
2023/02/19 13:01:11;;;;;;;8.65;3.33;;;;;;;;;;5001909;28;20514;-78
2023/02/19 13:03:41;;;;;;;8.05;3.35;;;;;;;;;;5005304;28;20459;-77
2023/02/19 13:06:14;;;;;;;15.85;4.13;;;;;;;;;;5019600;28;20046;-76
2023/02/19 13:08:46;;;;;;;7.75;2.88;;;;;;;;;;5017536;28;20472;-77
2023/02/19 13:11:42;;;;;;;3.45;1.58;;;;;;;;;;5016262;28;20417;-78
2023/02/19 13:14:28;;;;;;;3.22;1.02;;;;;;;;;;4997886;28;20132;-77
2023/02/19 13:17:00;;;;;;;0.82;0.52;;;;;;;;;;5017233;28;20160;-77
2023/02/19 13:19:28;;;;;;;3.40;1.17;;;;;;;;;;5016394;28;20505;-75
2023/02/19 13:24:47;;;;;;;3.45;1.50;;;;;;;;;;5022593;28;20147;-77
2023/02/19 13:27:43;;;;;;;2.72;1.27;;;;;;;;;;5017098;28;20050;-77
2023/02/19 13:30:50;;;;;;;1.17;0.73;;;;;;;;;;5021893;28;20460;-78
2023/02/19 13:33:20;;;;;;;3.63;0.90;;;;;;;;;;5021639;28;20092;-78
2023/02/19 13:35:50;;;;;;;3.58;1.02;;;;;;;;;;5020920;28;20125;-76
2023/02/19 13:38:17;;;;;;;2.90;0.88;;;;;;;;;;5015471;28;20058;-76
2023/02/19 13:40:58;;;;;;;1.70;0.85;;;;;;;;;;4991691;28;20136;-77
2023/02/19 13:43:29;;;;;;;5.07;1.13;;;;;;;;;;5019006;28;20149;-74
2023/02/19 13:46:02;;;;;;;4.82;1.15;;;;;;;;;;5017510;28;20084;-73
2023/02/19 13:48:32;;;;;;;2.70;1.00;;;;;;;;;;5000545;28;20129;-74
2023/02/19 13:51:17;;;;;;;2.97;1.45;;;;;;;;;;4999987;28;20056;-74
2023/02/19 13:53:44;;;;;;;3.15;1.13;;;;;;;;;;5012578;28;20064;-74
2023/02/19 13:56:32;;;;;;;5.13;1.50;;;;;;;;;;5013039;28;20068;-74
2023/02/19 13:59:33;;;;;;;4.75;1.45;;;;;;;;;;5013363;28;20650;-74
2023/02/19 14:02:01;;;;;;;6.10;1.60;;;;;;;;;;5018099;28;20053;-74
2023/02/19 14:04:30;;;;;;;3.45;1.20;;;;;;;;;;5013026;28;20061;-74
2023/02/19 14:07:03;;;;;;;2.83;1.35;;;;;;;;;;5015155;28;20446;-74
2023/02/19 14:09:34;;;;;;;;;;;;;;;;;;5018259;28;20108;-74
2023/02/19 14:12:21;;;;;;;2.78;1.30;;;;;;;;;;5028146;28;19929;-74
2023/02/19 14:14:52;;;;;;;6.65;1.80;;;;;;;;;;5015349;28;20057;-74
2023/02/19 14:17:28;;;;;;;2.50;1.20;;;;;;;;;;5001581;28;20045;-74
2023/02/19 14:19:56;;;;;;;6.32;1.17;;;;;;;;;;5001029;28;20072;-74
2023/02/19 14:22:54;;;;;;;2.97;1.20;;;;;;;;;;5015412;28;20046;-74
2023/02/19 14:25:29;;;;;;;2.88;1.13;;;;;;;;;;5020810;28;20054;-74
2023/02/19 14:28:08;;;;;;;3.92;1.50;;;;;;;;;;5018736;28;20053;-74
2023/02/19 14:30:47;;;;;;;2.95;1.58;;;;;;;;;;5019817;28;20889;-74
2023/02/19 14:33:15;;;;;;;4.50;1.40;;;;;;;;;;5017654;28;20053;-74
2023/02/19 14:35:44;;;;;;;2.63;1.48;;;;;;;;;;4990402;28;20045;-77
2023/02/19 14:38:22;;;;;;;3.60;1.25;;;;;;;;;;4984390;28;20061;-77
2023/02/19 14:40:51;;;;;;;4.10;1.48;;;;;;;;;;5002237;28;20407;-77
2023/02/19 14:43:19;;;;;;;6.38;1.50;;;;;;;;;;5000436;28;20050;-73
2023/02/19 14:45:56;;;;;;;5.00;2.10;;;;;;;;;;5001033;28;20120;-73
2023/02/19 14:48:34;;;;;;;3.85;1.55;;;;;;;;;;5018237;28;20049;-74
2023/02/19 14:51:03;;;;;;;4.15;2.03;;;;;;;;;;5004951;28;20061;-75
2023/02/19 14:53:30;;;;;;;2.45;1.10;;;;;;;;;;5014538;28;20135;-74
2023/02/19 14:55:57;;;;;;;2.83;1.33;;;;;;;;;;4999684;28;20068;-73
2023/02/19 14:58:29;;;;;;;7.05;1.50;;;;;;;;;;4984917;28;20053;-75
2023/02/19 15:00:56;;;;;;;5.57;1.30;;;;;;;;;;5019365;28;20653;-74
2023/02/19 15:03:35;;;;;;;3.08;1.00;;;;;;;;;;5018831;28;20058;-75
2023/02/19 15:06:06;;;;;;;3.80;1.00;;;;;;;;;;5000174;28;20057;-75
2023/02/19 15:08:41;;;;;;;2.60;0.90;;;;;;;;;;5021977;28;20062;-75
2023/02/19 15:11:10;;;;;;;5.30;2.10;;;;;;;;;;5018667;28;20516;-75
2023/02/19 15:13:37;;;;;;;5.38;1.30;;;;;;;;;;5019635;28;20064;-74
2023/02/19 15:16:04;;;;;;;4.15;1.25;;;;;;;;;;5001689;28;20041;-74
2023/02/19 15:18:35;;;;;;;2.80;0.98;;;;;;;;;;4999463;28;20445;-75
2023/02/19 15:21:03;;;;;;;2.45;0.98;;;;;;;;;;4999923;28;20060;-73
2023/02/19 15:23:30;;;;;;;3.35;2.13;;;;;;;;;;4989200;28;20241;-74
2023/02/19 15:25:57;;;;;;;3.42;1.17;;;;;;;;;;5003142;28;20421;-72
2023/02/19 15:28:24;;;;;;;4.53;1.17;;;;;;;;;;5000007;28;20059;-73
2023/02/19 15:30:57;;;;;;;4.35;1.20;;;;;;;;;;5017981;28;20465;-73
2023/02/19 15:33:26;;;;;;;;;;;;;;;;;;5018476;28;20162;-74